Time;durP1;ratioP1;P1;durP2;ratioP2;P2;SDS_P1;SDS_P2;PMS_P1;PMS_P2;Temp;Humidity;BMP_temperature;BMP_pressure;BME280_temperature;BME280_humidity;BME280_pressure;Samples;Min_cycle;Max_cycle;Signal;HPM_P1;HPM_P2
2021/12/04 00:00:42;;;;;;;12.83;10.57;;;;;;;-143.84;91.02;45012.88;5111708;28;20442;-71
2021/12/04 00:03:09;;;;;;;13.93;11.00;;;;;;;-143.84;91.96;44870.09;5111686;28;21100;-71
2021/12/04 00:05:38;;;;;;;14.53;11.20;;;;;;;-143.84;93.46;44702.53;5111655;28;20447;-71
2021/12/04 00:08:06;;;;;;;16.37;12.60;;;;;;;-143.84;94.12;44523.56;5111563;28;20508;-71
2021/12/04 00:10:33;;;;;;;16.93;12.47;;;;;;;-143.84;94.82;44291.28;5111294;28;20439;-71
2021/12/04 00:13:02;;;;;;;22.13;12.80;;;;;;;-143.84;95.45;44078.09;5111687;28;20434;-72
2021/12/04 00:15:29;;;;;;;22.40;14.13;;;;;;;-143.84;96.00;43922.00;5111154;28;20505;-71
2021/12/04 00:17:58;;;;;;;20.80;14.60;;;;;;;-143.84;96.83;43862.97;5111327;28;20883;-71
2021/12/04 00:20:27;;;;;;;22.73;15.20;;;;;;;-143.84;97.59;43809.69;5111211;28;20443;-72
2021/12/04 00:22:58;;;;;;;22.90;14.50;;;;;;;-143.84;97.61;43813.50;5111305;28;20533;-71
2021/12/04 00:25:25;;;;;;;24.93;15.73;;;;;;;-143.84;97.73;43798.25;5104596;28;20484;-72
2021/12/04 00:27:52;;;;;;;19.50;14.70;;;;;;;-143.84;97.83;43880.13;5092331;28;20448;-72
2021/12/04 00:30:21;;;;;;;21.63;13.53;;;;;;;-143.84;97.81;43832.53;5090791;28;20432;-71
2021/12/04 00:32:58;;;;;;;22.00;15.20;;;;;;;-143.84;98.11;43834.44;5091027;28;20507;-71
2021/12/04 00:35:35;;;;;;;25.70;16.47;;;;;;;-143.84;98.71;43874.41;5090779;28;20509;-72
2021/12/04 00:43:17;;;;;;;27.13;15.27;;;;;;;-143.84;98.48;43864.88;5090528;28;20439;-72
2021/12/04 00:49:20;;;;;;;23.40;14.33;;;;;;;-143.84;98.01;43840.13;5090537;28;20944;-72
2021/12/04 00:51:53;;;;;;;17.10;13.57;;;;;;;-143.84;98.21;43853.47;5090517;28;20444;-72
2021/12/04 00:54:21;;;;;;;19.70;13.20;;;;;;;-143.84;98.19;43847.75;5090109;28;20475;-72
2021/12/04 00:56:48;;;;;;;19.40;12.87;;;;;;;-143.84;98.43;43857.28;5090505;28;20440;-72
2021/12/04 00:59:17;;;;;;;16.97;12.10;;;;;;;-143.84;97.91;43834.44;5090082;28;20480;-72
2021/12/04 01:01:46;;;;;;;18.87;13.17;;;;;;;-143.84;97.44;43809.69;5089354;28;20443;-71
2021/12/04 01:04:16;;;;;;;19.07;12.40;;;;;;;-143.84;98.12;43882.00;5090471;28;20444;-71
2021/12/04 01:06:43;;;;;;;18.43;12.57;;;;;;;-143.84;98.80;43864.88;5090272;28;20448;-72
2021/12/04 01:09:12;;;;;;;19.60;13.97;;;;;;;-143.84;98.75;43880.13;5090081;28;20497;-71
2021/12/04 01:11:41;;;;;;;16.70;13.37;;;;;;;-143.84;99.20;43866.78;5089998;28;20492;-72
2021/12/04 01:14:09;;;;;;;20.50;13.97;;;;;;;-143.84;98.79;43878.22;5089935;28;20529;-72
2021/12/04 01:16:37;;;;;;;19.33;13.50;;;;;;;-143.84;98.60;43872.50;5089496;28;20533;-71
2021/12/04 01:19:06;;;;;;;19.90;12.80;;;;;;;-143.84;98.98;43878.22;5089883;28;20479;-71
2021/12/04 01:21:33;;;;;;;27.33;13.97;;;;;;;-143.84;99.42;43870.59;5089978;28;20444;-72
2021/12/04 01:24:00;;;;;;;21.40;13.33;;;;;;;-143.84;99.82;43887.72;5089335;28;20444;-72
2021/12/04 01:26:27;;;;;;;18.17;12.00;;;;;;;-143.84;99.52;43904.84;5088913;28;20440;-72
2021/12/04 01:28:55;;;;;;;18.93;12.70;;;;;;;-143.84;99.88;43902.97;5089208;28;20452;-71
2021/12/04 01:31:22;;;;;;;19.63;12.23;;;;;;;-143.84;99.46;43883.91;5088957;28;20497;-71
2021/12/04 01:33:49;;;;;;;22.77;12.43;;;;;;;-143.84;99.48;43876.31;5089445;28;20439;-71
2021/12/04 01:36:19;;;;;;;19.70;11.53;;;;;;;-143.84;99.80;43901.06;5089617;28;20432;-72
2021/12/04 01:38:46;;;;;;;17.80;13.03;;;;;;;-143.84;99.98;43885.81;5089428;28;20536;-72
2021/12/04 01:41:13;;;;;;;14.70;12.00;;;;;;;-143.84;99.98;43965.78;5089422;28;21049;-72
2021/12/04 01:43:40;;;;;;;13.20;11.10;;;;;;;-143.84;99.83;43902.97;5089687;28;20512;-72
2021/12/04 01:46:08;;;;;;;18.30;12.40;;;;;;;-143.84;99.94;43893.44;5089442;28;20447;-72
2021/12/04 01:48:35;;;;;;;16.90;12.10;;;;;;;-143.84;100.00;43908.66;5089113;28;20494;-72
2021/12/04 01:51:02;;;;;;;19.53;12.23;;;;;;;-143.84;100.00;43908.66;5089657;28;20440;-72
2021/12/04 01:53:31;;;;;;;15.17;11.97;;;;;;;-143.84;100.00;43931.50;5089213;28;20961;-72
2021/12/04 01:56:01;;;;;;;14.60;11.00;;;;;;;-143.84;100.00;43923.91;5089503;28;20432;-72
2021/12/04 01:58:30;;;;;;;14.90;11.20;;;;;;;-143.84;100.00;43929.59;5089190;28;20436;-71
2021/12/04 02:00:58;;;;;;;14.77;11.20;;;;;;;-143.84;100.00;43904.84;5089377;28;20444;-72
2021/12/04 02:03:25;;;;;;;13.40;11.17;;;;;;;-143.84;100.00;43904.84;5089246;28;20496;-72
2021/12/04 02:05:52;;;;;;;14.97;10.57;;;;;;;-143.84;100.00;43916.28;5089198;28;20493;-72
2021/12/04 02:08:21;;;;;;;14.33;9.97;;;;;;;-143.84;100.00;43937.22;5088998;28;20443;-72
2021/12/04 02:10:52;;;;;;;15.23;9.93;;;;;;;-143.84;100.00;43912.47;5089019;28;20436;-72
2021/12/04 02:13:19;;;;;;;13.90;11.00;;;;;;;-143.84;100.00;43916.28;5088992;28;20448;-72
2021/12/04 02:15:48;;;;;;;11.87;10.60;;;;;;;-143.84;100.00;43939.13;5088601;28;20479;-72
2021/12/04 02:18:16;;;;;;;10.97;9.43;;;;;;;-143.84;100.00;43935.31;5088959;28;20983;-72
2021/12/04 02:20:44;;;;;;;12.30;9.53;;;;;;;-143.84;100.00;43922.00;5088793;28;20440;-72
2021/12/04 02:23:12;;;;;;;13.03;9.93;;;;;;;-143.84;100.00;43916.28;5088947;28;20836;-72
2021/12/04 02:25:40;;;;;;;11.13;9.80;;;;;;;-143.84;100.00;43901.06;5088992;28;20493;-72
2021/12/04 02:28:09;;;;;;;12.50;10.37;;;;;;;-143.84;100.00;43904.84;5088990;28;20435;-72
2021/12/04 02:30:39;;;;;;;10.90;9.80;;;;;;;-143.84;100.00;43916.28;5088777;28;20496;-72
2021/12/04 02:33:12;;;;;;;10.30;9.23;;;;;;;-143.84;100.00;43933.41;5088782;28;20497;-72
2021/12/04 02:35:40;;;;;;;10.10;8.43;;;;;;;-143.84;100.00;43935.31;5088574;28;20497;-72
2021/12/04 02:38:08;;;;;;;13.13;8.23;;;;;;;-143.84;100.00;43923.91;5089045;28;20439;-72
2021/12/04 02:40:36;;;;;;;10.90;8.20;;;;;;;-143.84;100.00;43944.84;5089011;28;20475;-72
2021/12/04 02:43:04;;;;;;;8.43;7.60;;;;;;;-143.84;100.00;43965.78;5088817;28;20440;-72
2021/12/04 02:45:32;;;;;;;10.07;8.53;;;;;;;-143.84;100.00;43961.97;5088782;28;21039;-72
2021/12/04 02:47:59;;;;;;;9.97;7.93;;;;;;;-143.84;100.00;43933.41;5088639;28;20440;-72
2021/12/04 02:50:26;;;;;;;10.30;7.87;;;;;;;-143.84;100.00;43933.41;5088685;28;20440;-72
2021/12/04 02:52:53;;;;;;;10.80;7.97;;;;;;;-143.84;100.00;43944.84;5088858;28;20431;-72
2021/12/04 02:55:22;;;;;;;8.37;7.57;;;;;;;-143.84;100.00;43927.69;5088539;28;20457;-72
2021/12/04 02:57:49;;;;;;;9.80;7.27;;;;;;;-143.84;100.00;43942.94;5088739;28;20440;-72
2021/12/04 03:00:18;;;;;;;7.80;7.03;;;;;;;-143.84;100.00;43965.78;5088407;28;20474;-72
2021/12/04 03:02:46;;;;;;;8.67;7.10;;;;;;;-143.84;100.00;43986.72;5088523;28;20440;-72
2021/12/04 03:05:13;;;;;;;7.03;6.43;;;;;;;-143.84;100.00;43986.72;5088392;28;20439;-72
2021/12/04 03:07:41;;;;;;;9.13;7.50;;;;;;;-143.84;100.00;43986.72;5088577;28;20493;-72
2021/12/04 03:10:09;;;;;;;7.47;6.00;;;;;;;-143.84;100.00;43975.28;5088482;28;20443;-72
2021/12/04 03:12:40;;;;;;;6.40;5.80;;;;;;;-143.84;100.00;43979.09;5088550;28;20432;-72
2021/12/04 03:15:09;;;;;;;6.23;5.73;;;;;;;-143.84;100.00;43979.09;5088854;28;20448;-72
2021/12/04 03:17:37;;;;;;;6.00;5.40;;;;;;;-143.84;100.00;43979.09;5087659;28;20475;-72
2021/12/04 03:20:07;;;;;;;7.80;6.07;;;;;;;-143.84;100.00;43998.13;5087674;28;20908;-72
2021/12/04 03:22:34;;;;;;;6.73;6.23;;;;;;;-143.84;100.00;44017.16;5088035;28;20949;-72
2021/12/04 03:25:01;;;;;;;6.27;5.70;;;;;;;-143.84;100.00;44036.22;5090428;28;20434;-72
2021/12/04 03:27:31;;;;;;;6.07;5.43;;;;;;;-143.84;100.00;44045.72;5091580;28;20450;-72
2021/12/04 03:30:03;;;;;;;7.00;6.30;;;;;;;-143.84;100.00;44036.22;5091972;28;21307;-72
2021/12/04 03:39:59;;;;;;;6.43;5.83;;;;;;;-143.84;100.00;44028.59;5091065;28;20510;-72
2021/12/04 03:40:59;;;;;;;5.37;4.87;;;;;;;-143.84;100.00;44011.47;5091844;28;20851;-71
2021/12/04 03:43:27;;;;;;;4.77;4.37;;;;;;;-143.84;100.00;44011.47;5091630;28;20440;-71
2021/12/04 03:45:59;;;;;;;4.07;3.70;;;;;;;-143.84;100.00;43990.53;5091698;28;20523;-71
2021/12/04 03:51:10;;;;;;;5.37;4.80;;;;;;;-143.84;100.00;43996.22;5088005;28;20447;-71
2021/12/04 03:53:37;;;;;;;4.50;3.90;;;;;;;-143.84;100.00;44005.75;5091789;28;20436;-71
2021/12/04 03:56:05;;;;;;;4.33;3.83;;;;;;;-143.84;100.00;44009.56;5091924;28;20436;-71
2021/12/04 03:58:33;;;;;;;5.20;4.70;;;;;;;-143.84;100.00;44007.66;5072669;28;20439;-71
2021/12/04 04:01:01;;;;;;;3.40;3.20;;;;;;;-143.84;100.00;44007.66;5090687;28;20479;-71
2021/12/04 04:03:29;;;;;;;4.53;4.13;;;;;;;-143.84;100.00;44015.25;5091351;28;20513;-71
2021/12/04 04:05:56;;;;;;;5.27;4.10;;;;;;;-143.84;100.00;44024.78;5091505;28;20440;-71
2021/12/04 04:08:23;;;;;;;3.37;3.10;;;;;;;-143.84;100.00;44000.03;5091379;28;20448;-71
2021/12/04 04:10:53;;;;;;;3.17;3.00;;;;;;;-143.84;100.00;44005.75;5091024;28;20436;-71
2021/12/04 04:13:21;;;;;;;3.23;3.03;;;;;;;-143.84;100.00;43990.53;5091103;28;20448;-71
2021/12/04 04:15:49;;;;;;;3.67;3.37;;;;;;;-143.84;100.00;43990.53;5091123;28;20491;-71
2021/12/04 04:18:18;;;;;;;3.13;2.93;;;;;;;-143.84;100.00;43965.78;5091200;28;20487;-71
2021/12/04 04:20:45;;;;;;;3.50;3.30;;;;;;;-143.84;100.00;43986.72;5091150;28;20482;-71
2021/12/04 04:23:12;;;;;;;3.30;3.10;;;;;;;-143.84;100.00;43956.25;5090895;28;20440;-71
2021/12/04 04:25:40;;;;;;;2.93;2.80;;;;;;;-143.84;100.00;43954.34;5090776;28;20451;-71
2021/12/04 04:28:07;;;;;;;2.90;2.70;;;;;;;-143.84;100.00;43944.84;5090882;28;20493;-71
2021/12/04 04:30:36;;;;;;;3.10;2.90;;;;;;;-143.84;100.00;43950.53;5090920;28;20809;-71
2021/12/04 04:33:04;;;;;;;7.03;3.57;;;;;;;-143.84;100.00;43942.94;5090618;28;20440;-71
2021/12/04 04:35:34;;;;;;;3.10;2.87;;;;;;;-143.84;100.00;43944.84;5090654;28;20515;-71
2021/12/04 04:38:12;;;;;;;6.43;3.33;;;;;;;-143.84;100.00;43969.59;5090817;28;20428;-71
2021/12/04 05:00:04;;;;;;;2.70;2.60;;;;;;;-143.84;100.00;44034.31;5090441;28;20478;-71
2021/12/04 05:11:05;;;;;;;3.00;2.80;;;;;;;-143.84;100.00;44053.34;5090088;28;20427;-71
2021/12/04 05:13:32;;;;;;;3.30;3.00;;;;;;;-143.84;100.00;44047.63;5089189;28;20455;-71
2021/12/04 05:16:01;;;;;;;3.87;2.73;;;;;;;-143.84;100.00;44047.63;5089229;28;21136;-71
2021/12/04 05:18:40;;;;;;;3.10;2.90;;;;;;;-143.84;100.00;44028.59;5089429;28;20535;-71
2021/12/04 05:21:08;;;;;;;2.80;2.60;;;;;;;-143.84;100.00;44030.50;5089574;28;20487;-71
2021/12/04 05:23:38;;;;;;;2.80;2.70;;;;;;;-143.84;100.00;44043.81;5090000;28;21038;-71
2021/12/04 05:26:08;;;;;;;3.07;2.87;;;;;;;-143.84;100.00;44032.41;5089705;28;20436;-71
2021/12/04 05:28:36;;;;;;;2.93;2.80;;;;;;;-143.84;100.00;44038.09;5089961;28;20900;-71
2021/12/04 05:31:03;;;;;;;2.53;2.40;;;;;;;-143.84;100.00;44036.22;5089885;28;20440;-71
2021/12/04 05:33:30;;;;;;;2.87;2.67;;;;;;;-143.84;100.00;44034.31;5089756;28;20444;-71
2021/12/04 05:35:58;;;;;;;2.70;2.50;;;;;;;-143.84;100.00;44030.50;5089753;28;20447;-71
2021/12/04 05:38:25;;;;;;;3.00;2.70;;;;;;;-143.84;100.00;44028.59;5104643;28;21052;-71
2021/12/04 05:40:54;;;;;;;2.93;2.80;;;;;;;-143.84;100.00;44064.75;5109287;28;20478;-72
2021/12/04 05:43:23;;;;;;;2.70;2.60;;;;;;;-143.84;100.00;44034.31;5109408;28;20435;-72
2021/12/04 05:45:56;;;;;;;2.93;2.80;;;;;;;-143.84;100.00;44051.44;5109462;28;20438;-72
2021/12/04 05:48:30;;;;;;;2.50;2.30;;;;;;;-143.84;100.00;44038.09;5109423;28;20442;-71
2021/12/04 05:51:18;;;;;;;6.97;2.63;;;;;;;-143.84;100.00;44040.00;5109643;28;20439;-71
2021/12/04 05:53:57;;;;;;;2.40;2.30;;;;;;;-143.84;100.00;44032.41;5109839;28;20753;-71
2021/12/04 05:56:26;;;;;;;2.50;2.40;;;;;;;-143.84;100.00;44040.00;5109772;28;20582;-71
2021/12/04 05:58:54;;;;;;;3.23;3.03;;;;;;;-143.84;100.00;44028.59;5109505;28;20488;-71
2021/12/04 06:01:22;;;;;;;2.60;2.40;;;;;;;-143.84;100.00;44024.78;5109646;28;21034;-71
2021/12/04 06:03:50;;;;;;;2.27;2.17;;;;;;;-143.84;100.00;44009.56;5109681;28;20435;-71
2021/12/04 06:06:18;;;;;;;2.47;1.70;;;;;;;-143.84;100.00;44034.31;5109534;28;20435;-71
2021/12/04 06:08:45;;;;;;;2.20;2.10;;;;;;;-143.84;100.00;44000.03;5109536;28;20928;-72
2021/12/04 06:11:12;;;;;;;2.03;1.93;;;;;;;-143.84;100.00;44000.03;5114125;27;20461;-74
2021/12/04 06:13:41;;;;;;;3.33;2.47;;;;;;;-143.84;100.00;44009.56;5118208;27;20507;-76
2021/12/04 06:16:09;;;;;;;2.90;2.80;;;;;;;-143.84;100.00;44013.38;5119690;27;20559;-73
2021/12/04 06:18:36;;;;;;;4.10;2.50;;;;;;;-143.84;100.00;43971.47;5116175;28;20450;-72
2021/12/04 06:23:48;;;;;;;3.20;2.90;;;;;;;-143.84;100.00;43960.06;5111232;28;20422;-72
2021/12/04 06:26:16;;;;;;;2.80;2.60;;;;;;;-143.84;100.00;43969.59;5124223;28;20479;-71
2021/12/04 06:28:45;;;;;;;2.77;2.60;;;;;;;-143.84;100.00;43965.78;5117711;28;20442;-72
2021/12/04 06:31:12;;;;;;;4.43;3.40;;;;;;;-143.84;100.00;43977.19;5122761;28;20514;-71
2021/12/04 06:33:40;;;;;;;2.87;2.70;;;;;;;-143.84;100.00;43948.63;5117542;28;20871;-73
2021/12/04 06:36:08;;;;;;;2.80;2.27;;;;;;;-143.84;100.00;43961.97;5121915;28;20501;-74
2021/12/04 06:38:37;;;;;;;2.50;2.30;;;;;;;-143.84;100.00;43942.94;5112770;28;20455;-73
2021/12/04 06:41:05;;;;;;;2.30;2.20;;;;;;;-143.84;100.00;43956.25;5113339;28;20482;-72
2021/12/04 06:43:34;;;;;;;2.10;2.00;;;;;;;-143.84;100.00;43952.44;5116096;28;20454;-71
2021/12/04 06:46:05;;;;;;;2.07;1.93;;;;;;;-143.84;100.00;43946.75;5124716;28;20487;-71
2021/12/04 06:48:40;;;;;;;1.77;1.67;;;;;;;-143.84;100.00;43960.06;5116319;28;20543;-71
2021/12/04 06:51:14;;;;;;;1.77;1.63;;;;;;;-143.84;100.00;43965.78;5123609;28;20458;-71
2021/12/04 06:53:45;;;;;;;1.73;1.63;;;;;;;-143.84;100.00;43971.47;5118209;28;20453;-71
2021/12/04 06:56:12;;;;;;;1.50;1.40;;;;;;;-143.84;100.00;43952.44;5114426;28;20458;-71
2021/12/04 06:58:40;;;;;;;1.43;1.33;;;;;;;-143.84;100.00;43961.97;5122736;27;20449;-71
2021/12/04 07:01:11;;;;;;;1.20;1.10;;;;;;;-143.84;100.00;43982.91;5124223;27;20477;-71
2021/12/04 07:03:38;;;;;;;1.50;1.40;;;;;;;-143.84;100.00;43937.22;5123447;27;20453;-71
2021/12/04 07:06:06;;;;;;;1.53;1.43;;;;;;;-143.84;100.00;43946.75;5124446;27;20457;-71
2021/12/04 07:08:33;;;;;;;1.70;1.60;;;;;;;-143.84;100.00;43952.44;5115999;27;21026;-72
2021/12/04 07:11:04;;;;;;;1.40;1.30;;;;;;;-143.84;100.00;43931.50;5111419;28;20443;-71
2021/12/04 07:13:31;;;;;;;1.50;1.40;;;;;;;-143.84;100.00;43954.34;5127817;27;20442;-71
2021/12/04 07:16:04;;;;;;;1.27;1.17;;;;;;;-143.84;100.00;43952.44;5125093;27;20513;-70
2021/12/04 07:18:35;;;;;;;0.90;0.80;;;;;;;-143.84;100.00;43960.06;5124760;27;20447;-72
2021/12/04 07:21:03;;;;;;;1.40;1.30;;;;;;;-143.84;100.00;43958.16;5112090;28;20482;-71
2021/12/04 07:23:31;;;;;;;1.77;1.20;;;;;;;-143.84;100.00;43935.31;5122875;27;20450;-71
2021/12/04 07:25:58;;;;;;;1.20;1.10;;;;;;;-143.84;100.00;43948.63;5119646;27;20464;-71
2021/12/04 07:28:26;;;;;;;1.30;1.20;;;;;;;-143.84;100.00;43967.69;5123741;27;20443;-71
2021/12/04 07:30:54;;;;;;;1.50;1.40;;;;;;;-143.84;100.00;43952.44;5126635;27;20442;-71
2021/12/04 07:33:21;;;;;;;1.17;1.07;;;;;;;-143.84;100.00;43946.75;5121444;27;20449;-71
2021/12/04 07:35:50;;;;;;;1.57;1.47;;;;;;;-143.84;100.00;43992.41;5123000;27;20503;-71
2021/12/04 07:38:17;;;;;;;1.60;1.50;;;;;;;-143.84;100.00;43975.28;5124049;27;20459;-72
2021/12/04 07:40:45;;;;;;;1.40;1.30;;;;;;;-143.84;100.00;43982.91;5128205;27;20532;-71
2021/12/04 07:43:13;;;;;;;1.93;1.83;;;;;;;-143.84;100.00;43969.59;5119608;27;20936;-72
2021/12/04 07:45:40;;;;;;;1.70;1.60;;;;;;;-143.84;100.00;43979.09;5124575;27;20455;-71
2021/12/04 07:48:08;;;;;;;1.83;1.73;;;;;;;-143.84;100.00;43981.00;5115852;27;20491;-71
2021/12/04 07:50:35;;;;;;;2.30;2.20;;;;;;;-143.84;100.00;43975.28;5116081;27;21316;-71
2021/12/04 07:53:04;;;;;;;1.90;1.80;;;;;;;-143.84;100.00;43973.38;5115507;27;20455;-71
2021/12/04 07:55:34;;;;;;;1.80;1.67;;;;;;;-143.84;100.00;43998.13;5120692;27;20461;-71
2021/12/04 07:58:01;;;;;;;2.90;1.80;;;;;;;-143.84;100.00;43967.69;5119008;27;20474;-71
2021/12/04 08:00:29;;;;;;;4.33;1.93;;;;;;;-143.84;100.00;43982.91;5126728;27;20488;-71
2021/12/04 08:02:56;;;;;;;1.67;1.57;;;;;;;-143.84;100.00;43979.09;5110821;28;20450;-71
2021/12/04 08:05:23;;;;;;;1.90;1.80;;;;;;;-143.84;100.00;43990.53;5119109;27;20501;-70
2021/12/04 08:07:51;;;;;;;2.10;2.00;;;;;;;-143.84;100.00;43982.91;5118851;27;20511;-70
2021/12/04 08:10:20;;;;;;;2.00;1.70;;;;;;;-143.84;100.00;43975.28;5125912;27;20804;-70
2021/12/04 08:12:48;;;;;;;4.00;2.00;;;;;;;-143.84;100.00;43982.91;5122563;27;20460;-71
2021/12/04 08:15:16;;;;;;;2.20;2.10;;;;;;;-143.84;100.00;43996.22;5120232;27;20449;-71
2021/12/04 08:17:44;;;;;;;5.80;2.43;;;;;;;-143.84;100.00;43977.19;5123465;27;20482;-70
2021/12/04 08:20:12;;;;;;;2.53;2.33;;;;;;;-143.84;100.00;43996.22;5116209;27;20465;-70
2021/12/04 08:22:40;;;;;;;2.23;2.03;;;;;;;-143.84;100.00;44009.56;5123552;27;20451;-70
2021/12/04 08:25:09;;;;;;;2.97;2.73;;;;;;;-143.84;100.00;44009.56;5114858;27;20449;-72
2021/12/04 08:27:38;;;;;;;2.43;2.33;;;;;;;-143.84;100.00;44005.75;5119341;27;20508;-74
2021/12/04 08:30:08;;;;;;;2.10;2.00;;;;;;;-143.84;100.00;44003.84;5115532;27;20458;-73
2021/12/04 08:32:35;;;;;;;2.00;1.90;;;;;;;-143.84;100.00;44013.38;5109575;27;20497;-73
2021/12/04 08:35:03;;;;;;;2.50;2.30;;;;;;;-143.84;100.00;44011.47;5126598;27;20442;-73
2021/12/04 08:37:30;;;;;;;4.90;2.03;;;;;;;-143.84;100.00;44011.47;5119396;27;20518;-74
2021/12/04 08:39:57;;;;;;;2.60;2.50;;;;;;;-143.84;100.00;43998.13;5118434;27;20524;-73
2021/12/04 08:42:25;;;;;;;2.43;2.33;;;;;;;-143.84;100.00;43996.22;5119672;27;20493;-73
2021/12/04 08:44:53;;;;;;;2.73;2.50;;;;;;;-143.84;100.00;44015.25;5115307;27;20594;-74
2021/12/04 08:47:21;;;;;;;3.10;2.90;;;;;;;-143.84;100.00;44000.03;5111776;27;20435;-75
2021/12/04 08:49:48;;;;;;;3.33;3.10;;;;;;;-143.84;100.00;43996.22;5111093;27;20434;-72
2021/12/04 08:52:18;;;;;;;2.50;2.40;;;;;;;-143.84;100.00;43990.53;5111230;27;20439;-73
2021/12/04 08:54:46;;;;;;;2.60;2.40;;;;;;;-143.84;100.00;43998.13;5111860;27;20463;-74
2021/12/04 08:57:13;;;;;;;2.20;2.10;;;;;;;-143.84;100.00;43998.13;5113314;27;20442;-73
2021/12/04 08:59:41;;;;;;;2.60;2.40;;;;;;;-143.84;100.00;44001.94;5111358;27;20443;-73
2021/12/04 09:02:10;;;;;;;3.53;2.23;;;;;;;-143.84;100.00;44009.56;5110619;27;20475;-73
2021/12/04 09:04:39;;;;;;;2.43;2.23;;;;;;;-143.84;100.00;44017.16;5113520;27;20452;-73
2021/12/04 09:07:08;;;;;;;2.80;2.60;;;;;;;-143.84;100.00;43994.31;5121857;27;20573;-73
2021/12/04 09:09:36;;;;;;;2.80;2.60;;;;;;;-143.84;100.00;44009.56;5118842;27;20443;-73
2021/12/04 09:12:07;;;;;;;3.07;2.87;;;;;;;-143.84;100.00;44019.06;5113907;27;20495;-73
2021/12/04 09:14:37;;;;;;;3.03;2.70;;;;;;;-143.84;100.00;44007.66;5115877;27;20434;-73
2021/12/04 09:17:08;;;;;;;3.57;3.37;;;;;;;-143.84;100.00;44017.16;5117097;27;20489;-73
2021/12/04 09:19:37;;;;;;;3.43;3.13;;;;;;;-143.84;100.00;44043.81;5115590;27;20453;-73
2021/12/04 09:22:06;;;;;;;2.90;2.70;;;;;;;-143.84;100.00;44040.00;5114877;27;20512;-72
2021/12/04 09:24:39;;;;;;;2.70;2.50;;;;;;;-143.84;100.00;44034.31;5113815;27;20445;-72
2021/12/04 09:27:13;;;;;;;3.97;3.40;;;;;;;-143.84;100.00;44028.59;5116161;27;20443;-72
2021/12/04 09:29:54;;;;;;;3.10;2.90;;;;;;;-143.84;100.00;44028.59;5115677;27;20477;-72
2021/12/04 10:03:03;;;;;;;3.50;3.20;;;;;;;-143.84;100.00;44020.97;5111173;27;20458;-74
2021/12/04 10:14:23;;;;;;;3.43;3.20;;;;;;;-143.84;100.00;44024.78;5083378;28;20471;-84
2021/12/04 10:20:07;;;;;;;3.10;2.67;;;;;;;-143.84;100.00;44001.94;5053923;28;20856;-78
2021/12/04 10:22:40;;;;;;;3.30;3.10;;;;;;;-143.84;100.00;44017.16;5048635;28;20473;-80
2021/12/04 10:33:38;;;;;;;3.37;3.17;;;;;;;-143.84;100.00;44001.94;5121629;27;20436;-78
2021/12/04 10:36:05;;;;;;;2.90;2.70;;;;;;;-143.84;100.00;44015.25;5116341;27;20442;-78
2021/12/04 10:38:39;;;;;;;3.80;3.50;;;;;;;-143.84;100.00;44001.94;5116417;27;20438;-78
2021/12/04 10:41:10;;;;;;;4.13;3.87;;;;;;;-143.84;100.00;43988.63;5115628;27;20466;-79
2021/12/04 10:43:37;;;;;;;4.17;3.87;;;;;;;-143.84;100.00;44019.06;5124650;27;20442;-78
2021/12/04 10:46:12;;;;;;;11.90;4.40;;;;;;;-143.84;100.00;44013.38;5118066;27;20450;-78
2021/12/04 10:48:46;;;;;;;5.10;4.60;;;;;;;-143.84;100.00;44000.03;5119884;27;20434;-77
2021/12/04 10:51:24;;;;;;;4.80;4.40;;;;;;;-143.84;100.00;43979.09;5119053;27;20551;-80
2021/12/04 10:53:55;;;;;;;4.73;4.33;;;;;;;-143.84;100.00;43971.47;5120531;27;20450;-79
2021/12/04 10:56:30;;;;;;;3.20;3.00;;;;;;;-143.84;100.00;44001.94;5112720;28;21818;-76
2021/12/04 10:59:17;;;;;;;4.70;4.30;;;;;;;-143.84;100.00;43992.41;5116526;27;20506;-76
2021/12/04 11:04:33;;;;;;;3.20;2.90;;;;;;;-143.84;100.00;43986.72;5106395;27;20488;-76
2021/12/04 11:21:37;;;;;;;3.23;3.03;;;;;;;-143.84;100.00;44017.16;5109498;27;20994;-75
2021/12/04 11:27:30;;;;;;;2.90;2.60;;;;;;;-143.84;100.00;44009.56;5083507;27;21189;-75
2021/12/04 11:38:21;;;;;;;3.03;2.83;;;;;;;-143.84;100.00;43982.91;5073184;27;20438;-74
2021/12/04 11:43:39;;;;;;;3.60;3.30;;;;;;;-143.84;100.00;43986.72;5102652;27;20453;-79
2021/12/04 11:46:20;;;;;;;3.07;2.87;;;;;;;-143.84;100.00;43986.72;5119324;27;20532;-74
2021/12/04 11:48:48;;;;;;;2.93;2.73;;;;;;;-143.84;100.00;43979.09;5118319;27;20485;-73
2021/12/04 11:51:18;;;;;;;3.53;2.70;;;;;;;-143.84;100.00;43961.97;5113251;27;20449;-73
2021/12/04 11:53:47;;;;;;;3.40;3.20;;;;;;;-143.84;100.00;43969.59;5118436;27;20490;-74
2021/12/04 11:56:17;;;;;;;3.47;3.27;;;;;;;-143.84;100.00;43965.78;5117733;27;20465;-74
2021/12/04 11:58:47;;;;;;;3.63;3.33;;;;;;;-143.84;100.00;43965.78;5117768;27;20550;-74
2021/12/04 12:01:31;;;;;;;2.50;2.40;;;;;;;-143.84;100.00;43946.75;5116478;27;20478;-74
2021/12/04 12:04:00;;;;;;;3.00;2.70;;;;;;;-143.84;100.00;43986.72;5119935;27;20493;-73
2021/12/04 12:06:34;;;;;;;2.40;2.20;;;;;;;-143.84;100.00;43967.69;5117561;27;20455;-75
2021/12/04 12:09:07;;;;;;;2.50;2.30;;;;;;;-143.84;100.00;43973.38;5116541;27;20462;-74
2021/12/04 12:11:35;;;;;;;3.07;2.87;;;;;;;-143.84;100.00;43979.09;5117646;27;20948;-74
2021/12/04 12:14:07;;;;;;;2.77;2.57;;;;;;;-143.84;100.00;43969.59;5120770;27;21031;-74
2021/12/04 12:16:41;;;;;;;1.87;1.77;;;;;;;-143.84;100.00;43967.69;5115568;27;20510;-74
2021/12/04 12:19:13;;;;;;;2.60;2.50;;;;;;;-143.84;100.00;43981.00;5116897;27;20447;-75
2021/12/04 12:21:51;;;;;;;2.40;2.20;;;;;;;-143.84;100.00;43973.38;5119100;27;20660;-75
2021/12/04 12:27:32;;;;;;;2.43;2.33;;;;;;;-143.84;100.00;43944.84;5117044;27;20423;-74
2021/12/04 12:33:09;;;;;;;3.20;2.90;;;;;;;-143.84;100.00;43948.63;5116310;27;20994;-73
2021/12/04 12:38:41;;;;;;;2.70;2.20;;;;;;;-143.84;100.00;43935.31;5115015;27;20487;-74
2021/12/04 12:41:12;;;;;;;3.03;2.83;;;;;;;-143.84;100.00;43950.53;5119393;27;20464;-74
2021/12/04 12:43:46;;;;;;;2.83;2.63;;;;;;;-143.84;100.00;43925.78;5123991;27;20446;-75
2021/12/04 12:46:14;;;;;;;3.07;2.87;;;;;;;-143.84;100.00;43944.84;5120766;27;20442;-74
2021/12/04 12:49:02;;;;;;;3.17;2.97;;;;;;;-143.84;100.00;43931.50;5117261;27;20450;-75
2021/12/04 12:51:32;;;;;;;2.60;2.50;;;;;;;-143.84;100.00;43950.53;5118443;27;20454;-75
2021/12/04 12:54:01;;;;;;;2.57;2.37;;;;;;;-143.84;100.00;43948.63;5121280;27;20453;-75
2021/12/04 12:56:31;;;;;;;2.90;2.70;;;;;;;-143.84;100.00;43948.63;5121323;27;21422;-74
2021/12/04 12:59:03;;;;;;;2.87;2.67;;;;;;;-143.84;100.00;43952.44;5114809;27;20449;-73
2021/12/04 13:12:58;;;;;;;2.53;2.33;;;;;;;-143.84;100.00;43973.38;5113110;27;20426;-73
2021/12/04 13:15:37;;;;;;;3.17;2.80;;;;;;;-143.84;100.00;43960.06;5111958;27;20443;-72
2021/12/04 13:18:12;;;;;;;2.23;2.13;;;;;;;-143.84;100.00;43942.94;5111034;27;20435;-73
2021/12/04 13:20:41;;;;;;;3.00;2.80;;;;;;;-143.84;100.00;43931.50;5112043;27;20517;-74
2021/12/04 13:23:11;;;;;;;2.50;2.33;;;;;;;-143.84;100.00;43994.31;5122809;27;20474;-75
2021/12/04 13:25:38;;;;;;;2.27;2.17;;;;;;;-143.84;100.00;43931.50;5113330;27;20443;-75
2021/12/04 13:30:32;;;;;;;2.80;2.60;;;;;;;-143.84;100.00;43912.47;5116674;27;20585;-75
2021/12/04 13:32:59;;;;;;;3.20;3.00;;;;;;;-143.84;100.00;43931.50;5119795;27;20889;-75
2021/12/04 13:35:26;;;;;;;3.27;2.97;;;;;;;-143.84;100.00;43927.69;5118928;27;20816;-75
2021/12/04 13:38:01;;;;;;;4.27;3.87;;;;;;;-143.84;100.00;43910.56;5116566;27;20438;-74
2021/12/04 13:40:29;;;;;;;3.13;2.90;;;;;;;-143.84;100.00;43933.41;5114485;27;21129;-74
2021/12/04 13:42:57;;;;;;;3.77;3.47;;;;;;;-143.84;100.00;43916.28;5118807;27;20467;-75
2021/12/04 13:45:24;;;;;;;3.37;3.13;;;;;;;-143.84;100.00;43910.56;5117301;27;20434;-75
2021/12/04 13:47:53;;;;;;;3.83;3.30;;;;;;;-143.84;99.81;43897.25;5119364;27;20816;-75
2021/12/04 13:53:14;;;;;;;3.77;3.47;;;;;;;-143.84;100.00;43922.00;5117387;27;20435;-71